createdAt,value
2022-10-25T00:01:27.595Z,14.44
2022-10-25T00:03:56.076Z,14.41
2022-10-25T00:06:24.345Z,14.42
2022-10-25T00:08:52.277Z,14.42
2022-10-25T00:11:22.889Z,14.43
2022-10-25T00:13:53.190Z,14.45
2022-10-25T00:16:25.509Z,14.43
2022-10-25T00:18:53.912Z,14.47
2022-10-25T00:21:22.338Z,14.46
2022-10-25T00:23:50.916Z,14.44
2022-10-25T00:26:19.966Z,14.43
2022-10-25T00:28:48.641Z,14.42
2022-10-25T00:31:17.532Z,14.40
2022-10-25T00:33:45.701Z,14.37
2022-10-25T00:36:17.152Z,14.30
2022-10-25T00:38:46.147Z,14.25
2022-10-25T00:41:17.862Z,14.20
2022-10-25T00:43:48.582Z,14.19
2022-10-25T00:46:23.261Z,14.18
2022-10-25T00:48:57.588Z,14.12
2022-10-25T00:51:33.576Z,14.06
2022-10-25T00:54:01.735Z,14.01
2022-10-25T00:56:33.518Z,13.98
2022-10-25T00:59:04.409Z,13.96
2022-10-25T01:01:32.682Z,13.92
2022-10-25T01:04:05.008Z,13.92
2022-10-25T01:07:02.546Z,13.89
2022-10-25T01:09:32.982Z,13.80
2022-10-25T01:12:00.912Z,13.73
2022-10-25T01:14:29.817Z,13.64
2022-10-25T01:17:19.024Z,13.59
2022-10-25T01:19:49.921Z,13.55
2022-10-25T01:22:20.275Z,13.53
2022-10-25T01:25:09.930Z,13.49
2022-10-25T01:30:31.238Z,13.48
2022-10-25T01:32:59.015Z,13.50
2022-10-25T01:35:30.995Z,13.53
2022-10-25T01:38:15.401Z,13.56
2022-10-25T01:40:53.097Z,13.59
2022-10-25T01:43:51.706Z,13.61
2022-10-25T01:46:34.739Z,13.62
2022-10-25T01:49:11.076Z,13.62
2022-10-25T01:51:39.060Z,13.66
2022-10-25T01:54:27.805Z,13.68
2022-10-25T01:57:25.493Z,13.69
2022-10-25T02:00:14.250Z,13.72
2022-10-25T02:02:45.324Z,13.73
2022-10-25T02:05:27.625Z,13.71
2022-10-25T02:08:08.840Z,13.68
2022-10-25T02:10:44.010Z,13.62
2022-10-25T02:13:28.545Z,13.62
2022-10-25T02:16:23.627Z,13.58
2022-10-25T02:18:59.173Z,13.59
2022-10-25T02:21:28.706Z,13.60
2022-10-25T02:23:59.909Z,13.62
2022-10-25T02:26:28.186Z,13.65
2022-10-25T02:28:57.098Z,13.67
2022-10-25T02:31:26.477Z,13.69
2022-10-25T02:33:54.345Z,13.70
2022-10-25T02:36:23.999Z,13.74
2022-10-25T02:38:53.338Z,13.77
2022-10-25T02:41:22.405Z,13.79
2022-10-25T02:43:50.360Z,13.81
2022-10-25T02:46:20.813Z,13.83
2022-10-25T02:48:49.692Z,13.88
2022-10-25T02:51:18.437Z,13.91
2022-10-25T02:53:46.776Z,13.94
2022-10-25T02:56:17.926Z,13.99
2022-10-25T02:58:47.366Z,14.01
2022-10-25T03:01:17.143Z,14.01
2022-10-25T03:03:45.279Z,14.04
2022-10-25T03:06:14.342Z,14.04
2022-10-25T03:08:42.962Z,14.04
2022-10-25T03:11:12.464Z,14.06
2022-10-25T03:13:40.364Z,14.05
2022-10-25T03:16:08.985Z,14.08
2022-10-25T03:18:37.315Z,14.06
2022-10-25T03:21:05.678Z,14.08
2022-10-25T03:23:33.696Z,14.06
2022-10-25T03:26:01.580Z,14.07
2022-10-25T03:28:30.451Z,14.08
2022-10-25T03:30:59.965Z,14.09
2022-10-25T03:33:28.165Z,14.12
2022-10-25T03:35:56.966Z,14.12
2022-10-25T03:38:24.709Z,14.13
2022-10-25T03:40:53.521Z,14.14
2022-10-25T03:45:49.084Z,14.14
2022-10-25T03:48:16.987Z,14.13
2022-10-25T03:50:44.903Z,14.12
2022-10-25T03:53:12.647Z,14.09
2022-10-25T03:55:40.494Z,14.11
2022-10-25T03:58:08.162Z,14.11
2022-10-25T04:00:36.050Z,14.12
2022-10-25T04:03:04.033Z,14.13
2022-10-25T04:05:32.457Z,14.15
2022-10-25T04:08:00.361Z,14.18
2022-10-25T04:10:28.275Z,14.21
2022-10-25T04:12:56.039Z,14.23
2022-10-25T04:15:24.562Z,14.25
2022-10-25T04:17:53.124Z,14.28
2022-10-25T04:20:21.719Z,14.28
2022-10-25T04:22:55.188Z,14.32
2022-10-25T04:25:25.326Z,14.37
2022-10-25T04:27:53.614Z,14.44
2022-10-25T04:30:21.659Z,14.57
2022-10-25T04:32:49.873Z,14.71
2022-10-25T04:35:18.092Z,14.87
2022-10-25T04:37:45.934Z,14.97
2022-10-25T04:40:13.733Z,15.04
2022-10-25T04:42:41.675Z,15.07
2022-10-25T04:45:10.397Z,15.08
2022-10-25T04:47:38.363Z,15.08
2022-10-25T04:50:06.915Z,15.07
2022-10-25T04:52:34.675Z,15.08
2022-10-25T04:55:02.550Z,15.04
2022-10-25T04:57:30.722Z,14.98
2022-10-25T04:59:59.231Z,14.94
2022-10-25T05:02:27.273Z,14.88
2022-10-25T05:04:55.117Z,14.85
2022-10-25T05:07:22.932Z,14.78
2022-10-25T05:09:50.729Z,14.69
2022-10-25T05:12:18.491Z,14.58
2022-10-25T05:14:46.887Z,14.50
2022-10-25T05:17:14.740Z,14.38
2022-10-25T05:19:42.550Z,14.28
2022-10-25T05:22:10.257Z,14.24
2022-10-25T05:24:37.978Z,14.15
2022-10-25T05:27:05.726Z,14.08
2022-10-25T05:29:33.522Z,14.08
2022-10-25T05:32:01.325Z,14.03
2022-10-25T05:34:29.320Z,13.98
2022-10-25T05:36:57.830Z,13.97
2022-10-25T05:39:25.646Z,13.90
2022-10-25T05:41:53.481Z,13.91
2022-10-25T05:44:21.238Z,13.88
2022-10-25T05:46:49.055Z,13.81
2022-10-25T05:49:17.172Z,13.80
2022-10-25T05:51:45.081Z,13.82
2022-10-25T05:54:15.438Z,13.80
2022-10-25T05:56:43.751Z,13.77
2022-10-25T05:59:14.425Z,13.81
2022-10-25T06:01:45.004Z,13.76
2022-10-25T06:04:13.806Z,13.77
2022-10-25T06:06:43.657Z,13.75
2022-10-25T06:09:12.677Z,13.74
2022-10-25T06:11:40.997Z,13.73
2022-10-25T06:14:10.825Z,13.79
2022-10-25T06:16:39.166Z,13.80
2022-10-25T06:19:09.071Z,13.80
2022-10-25T06:21:37.297Z,13.82
2022-10-25T06:24:05.553Z,13.83
2022-10-25T06:26:33.515Z,13.80
2022-10-25T06:29:03.127Z,13.79
2022-10-25T06:31:32.316Z,13.79
2022-10-25T06:34:01.313Z,13.79
2022-10-25T06:36:31.073Z,13.82
2022-10-25T06:39:05.455Z,13.84
2022-10-25T06:41:36.930Z,13.86
2022-10-25T06:44:07.127Z,13.87
2022-10-25T06:47:04.480Z,13.89
2022-10-25T06:49:26.256Z,13.94
2022-10-25T06:51:54.226Z,13.97
2022-10-25T06:54:22.067Z,13.97
2022-10-25T06:56:50.071Z,14.01
2022-10-25T06:59:19.414Z,14.00
2022-10-25T07:01:47.487Z,13.99
2022-10-25T07:04:15.804Z,13.96
2022-10-25T07:06:43.670Z,13.96
2022-10-25T07:09:13.134Z,13.99
2022-10-25T07:11:41.290Z,13.99
2022-10-25T07:14:09.493Z,14.02
2022-10-25T07:16:37.289Z,14.00
2022-10-25T07:19:05.227Z,13.96
2022-10-25T07:21:34.079Z,13.94
2022-10-25T07:24:02.362Z,13.94
2022-10-25T07:26:34.925Z,13.91
2022-10-25T07:29:04.535Z,13.88
2022-10-25T07:31:41.500Z,13.91
2022-10-25T07:34:12.812Z,13.91
2022-10-25T07:36:41.383Z,13.88
2022-10-25T07:39:09.358Z,13.87
2022-10-25T07:41:37.102Z,13.87
2022-10-25T07:44:05.046Z,13.79
2022-10-25T07:46:32.849Z,13.82
2022-10-25T07:49:00.630Z,13.77
2022-10-25T07:51:28.594Z,13.74
2022-10-25T07:53:56.334Z,13.74
2022-10-25T07:56:24.113Z,13.75
2022-10-25T07:58:52.647Z,13.67
2022-10-25T08:01:23.143Z,13.57
2022-10-25T08:03:51.868Z,13.59
2022-10-25T08:06:21.247Z,13.55
2022-10-25T08:08:49.241Z,13.44
2022-10-25T08:11:17.696Z,13.48
2022-10-25T08:13:48.536Z,13.44
2022-10-25T08:16:16.384Z,13.37
2022-10-25T08:18:44.516Z,13.40
2022-10-25T08:21:12.716Z,13.34
2022-10-25T08:23:40.471Z,13.30
2022-10-25T08:26:08.514Z,13.31
2022-10-25T08:28:36.257Z,13.33
2022-10-25T08:31:04.658Z,13.31
2022-10-25T08:33:33.421Z,13.29
2022-10-25T08:36:02.571Z,13.33
2022-10-25T08:38:30.366Z,13.33
2022-10-25T08:41:19.137Z,13.32
2022-10-25T08:44:20.977Z,13.37
2022-10-25T08:47:29.723Z,13.37
2022-10-25T08:50:06.618Z,13.39
2022-10-25T08:52:41.270Z,13.43
2022-10-25T08:55:16.926Z,13.39
2022-10-25T08:57:47.608Z,13.44
2022-10-25T09:00:22.526Z,13.44
2022-10-25T09:02:54.287Z,13.46
2022-10-25T09:05:34.580Z,13.52
2022-10-25T09:08:28.868Z,13.57
2022-10-25T09:11:15.194Z,13.57
2022-10-25T09:14:00.160Z,13.61
2022-10-25T09:16:49.726Z,13.65
2022-10-25T09:19:21.285Z,13.68
2022-10-25T09:22:01.809Z,13.67
2022-10-25T09:24:47.836Z,13.68
2022-10-25T09:27:27.237Z,13.73
2022-10-25T09:30:11.910Z,13.80
2022-10-25T09:32:48.807Z,13.80
2022-10-25T09:35:53.477Z,13.79
2022-10-25T09:38:25.730Z,13.82
2022-10-25T09:40:56.981Z,13.83
2022-10-25T09:43:35.965Z,13.89
2022-10-25T09:46:18.921Z,13.91
2022-10-25T09:48:55.378Z,13.90
2022-10-25T09:51:36.013Z,13.87
2022-10-25T09:54:15.147Z,13.88
2022-10-25T09:56:43.000Z,13.89
2022-10-25T09:59:14.401Z,13.93
2022-10-25T10:01:42.648Z,13.94
2022-10-25T10:04:26.330Z,13.98
2022-10-25T10:06:59.241Z,14.03
2022-10-25T10:09:29.954Z,14.03
2022-10-25T10:12:01.033Z,14.03
2022-10-25T10:14:40.420Z,14.07
2022-10-25T10:17:15.460Z,14.12
2022-10-25T10:19:44.045Z,14.18
2022-10-25T10:22:16.881Z,14.17
2022-10-25T10:25:01.744Z,14.17
2022-10-25T10:27:29.541Z,14.15
2022-10-25T10:30:06.368Z,14.19
2022-10-25T10:35:34.017Z,14.26
2022-10-25T10:38:21.766Z,14.32
2022-10-25T10:40:52.008Z,14.45
2022-10-25T10:43:33.991Z,14.48
2022-10-25T10:46:05.411Z,14.47
2022-10-25T10:48:42.054Z,14.50
2022-10-25T10:51:32.070Z,14.49
2022-10-25T10:54:24.502Z,14.49
2022-10-25T10:57:00.631Z,14.49
2022-10-25T10:59:32.866Z,14.53
2022-10-25T11:02:36.419Z,14.48
2022-10-25T11:05:28.030Z,14.50
2022-10-25T11:07:58.214Z,14.52
2022-10-25T11:10:29.160Z,14.52
2022-10-25T11:13:22.905Z,14.49
2022-10-25T11:16:11.876Z,14.48
2022-10-25T11:18:58.220Z,14.49
2022-10-25T11:21:49.790Z,14.50
2022-10-25T11:24:44.966Z,14.57
2022-10-25T11:27:18.650Z,14.64
2022-10-25T11:30:08.238Z,14.67
2022-10-25T11:32:54.889Z,14.72
2022-10-25T11:35:44.580Z,14.75
2022-10-25T11:38:21.595Z,14.81
2022-10-25T11:40:52.423Z,14.82
2022-10-25T11:43:29.239Z,14.91
2022-10-25T11:46:02.512Z,14.98
2022-10-25T11:48:39.270Z,15.05
2022-10-25T11:51:34.736Z,15.08
2022-10-25T11:54:27.079Z,15.11
2022-10-25T11:57:09.955Z,15.17
2022-10-25T11:59:46.898Z,15.22
2022-10-25T12:02:36.614Z,15.28
2022-10-25T12:05:58.886Z,15.32
2022-10-25T12:08:49.468Z,15.30
2022-10-25T12:11:24.344Z,15.31
2022-10-25T12:14:05.117Z,15.29
2022-10-25T12:16:36.357Z,15.28
2022-10-25T12:19:09.031Z,15.25
2022-10-25T12:21:51.294Z,15.25
2022-10-25T12:24:41.439Z,15.27
2022-10-25T12:27:11.669Z,15.26
2022-10-25T12:29:48.228Z,15.28
2022-10-25T12:32:29.260Z,15.26
2022-10-25T12:34:59.445Z,15.24
2022-10-25T12:37:38.126Z,15.26
2022-10-25T12:40:14.117Z,15.33
2022-10-25T12:42:47.367Z,15.39
2022-10-25T12:46:03.515Z,15.45
2022-10-25T12:49:13.402Z,15.49
2022-10-25T12:52:11.859Z,15.54
2022-10-25T12:55:09.927Z,15.58
2022-10-25T12:57:43.685Z,15.57
2022-10-25T13:00:22.784Z,15.57
2022-10-25T13:03:27.794Z,15.57
2022-10-25T13:06:04.708Z,15.56
2022-10-25T13:08:33.644Z,15.51
2022-10-25T13:11:07.871Z,15.49
2022-10-25T13:13:41.373Z,15.49
2022-10-25T13:16:10.961Z,15.48
2022-10-25T13:18:47.580Z,15.51
2022-10-25T13:21:16.455Z,15.54
2022-10-25T13:23:45.715Z,15.52
2022-10-25T13:26:16.825Z,15.51
2022-10-25T13:28:45.491Z,15.52
2022-10-25T13:31:35.069Z,15.51
2022-10-25T13:34:12.078Z,15.50
2022-10-25T13:36:54.703Z,15.52
2022-10-25T13:39:42.374Z,15.51
2022-10-25T13:42:16.211Z,15.53
2022-10-25T13:45:09.006Z,15.52
2022-10-25T13:47:48.557Z,15.56
2022-10-25T13:50:28.584Z,15.55
2022-10-25T13:53:02.954Z,15.56
2022-10-25T13:55:37.612Z,15.57
2022-10-25T13:58:31.738Z,15.59
2022-10-25T14:01:15.435Z,15.60
2022-10-25T14:04:01.908Z,15.61
2022-10-25T14:06:31.649Z,15.62
2022-10-25T14:09:18.035Z,15.62
2022-10-25T14:11:52.568Z,15.61
2022-10-25T14:14:34.955Z,15.60
2022-10-25T14:17:15.346Z,15.59
2022-10-25T14:19:50.162Z,15.59
2022-10-25T14:22:33.676Z,15.59
2022-10-25T14:25:14.864Z,15.61
2022-10-25T14:27:42.624Z,15.59
2022-10-25T14:30:25.289Z,15.58
2022-10-25T14:32:58.947Z,15.57
2022-10-25T14:35:35.432Z,15.55
2022-10-25T14:38:15.266Z,15.51
2022-10-25T14:40:51.041Z,15.46
2022-10-25T14:43:24.307Z,15.40
2022-10-25T14:46:13.658Z,15.36
2022-10-25T14:48:45.189Z,15.32
2022-10-25T14:51:25.124Z,15.28
2022-10-25T14:53:58.884Z,15.25
2022-10-25T14:56:35.409Z,15.23
2022-10-25T14:59:06.744Z,15.20
2022-10-25T15:01:35.382Z,15.20
2022-10-25T15:04:03.462Z,15.17
2022-10-25T15:06:32.609Z,15.16
2022-10-25T15:09:40.809Z,15.13
2022-10-25T15:12:29.070Z,15.11
2022-10-25T15:15:18.590Z,15.10
2022-10-25T15:17:53.356Z,15.07
2022-10-25T15:20:21.273Z,15.06
2022-10-25T15:22:50.693Z,15.03
2022-10-25T15:25:22.148Z,14.99
2022-10-25T15:27:51.155Z,14.98
2022-10-25T15:30:41.891Z,14.95
2022-10-25T15:33:13.249Z,14.94
2022-10-25T15:35:52.140Z,14.92
2022-10-25T15:38:20.133Z,14.94
2022-10-25T15:40:48.837Z,14.93
2022-10-25T15:43:16.666Z,14.93
2022-10-25T15:45:46.224Z,14.93
2022-10-25T15:48:19.318Z,14.92
2022-10-25T15:50:57.985Z,14.90
2022-10-25T15:53:25.963Z,14.90
2022-10-25T15:55:53.914Z,14.87
2022-10-25T15:58:21.726Z,14.88
2022-10-25T16:00:52.130Z,14.86
2022-10-25T16:03:22.197Z,14.87
2022-10-25T16:05:51.813Z,14.87
2022-10-25T16:08:19.649Z,14.87
2022-10-25T16:10:47.762Z,14.88
2022-10-25T16:13:23.240Z,14.87
2022-10-25T16:15:51.110Z,14.85
2022-10-25T16:18:19.111Z,14.83
2022-10-25T16:20:47.353Z,14.85
2022-10-25T16:23:15.077Z,14.85
2022-10-25T16:25:43.221Z,14.84
2022-10-25T16:28:14.566Z,14.82
2022-10-25T16:30:43.904Z,14.83
2022-10-25T16:33:11.726Z,14.82
2022-10-25T16:35:41.533Z,14.82
2022-10-25T16:40:38.610Z,14.83
2022-10-25T16:43:06.420Z,14.82
2022-10-25T16:45:37.801Z,14.81
2022-10-25T16:48:06.538Z,14.83
2022-10-25T16:50:35.239Z,14.80
2022-10-25T16:53:09.326Z,14.81
2022-10-25T16:55:37.581Z,14.80
2022-10-25T16:58:05.423Z,14.76
2022-10-25T17:00:35.655Z,14.74
2022-10-25T17:03:03.772Z,14.74
2022-10-25T17:05:34.974Z,14.72
2022-10-25T17:08:02.773Z,14.72
2022-10-25T17:10:30.690Z,14.69
2022-10-25T17:13:03.264Z,14.64
2022-10-25T17:15:32.013Z,14.61
2022-10-25T17:17:59.745Z,14.58
2022-10-25T17:20:27.789Z,14.59
2022-10-25T17:22:55.557Z,14.53
2022-10-25T17:25:23.316Z,14.48
2022-10-25T17:27:52.506Z,14.45
2022-10-25T17:30:20.733Z,14.47
2022-10-25T17:32:48.683Z,14.46
2022-10-25T17:35:16.550Z,14.45
2022-10-25T17:37:44.683Z,14.45
2022-10-25T17:40:18.972Z,14.45
2022-10-25T17:42:49.557Z,14.48
2022-10-25T17:45:21.902Z,14.47
2022-10-25T17:47:50.578Z,14.51
2022-10-25T17:50:20.195Z,14.58
2022-10-25T17:52:50.206Z,14.61
2022-10-25T17:55:18.067Z,14.62
2022-10-25T17:57:47.180Z,14.62
2022-10-25T18:00:16.031Z,14.65
2022-10-25T18:02:50.413Z,14.68
2022-10-25T18:05:21.139Z,14.69
2022-10-25T18:07:50.083Z,14.70
2022-10-25T18:10:18.821Z,14.66
2022-10-25T18:12:46.954Z,14.61
2022-10-25T18:15:15.346Z,14.56
2022-10-25T18:17:46.578Z,14.48
2022-10-25T18:20:15.064Z,14.42
2022-10-25T18:22:43.441Z,14.37
2022-10-25T18:25:11.572Z,14.34
2022-10-25T18:27:39.493Z,14.29
2022-10-25T18:30:08.252Z,14.25
2022-10-25T18:32:36.220Z,14.23
2022-10-25T18:35:04.518Z,14.19
2022-10-25T18:37:32.349Z,14.18
2022-10-25T18:40:00.200Z,14.17
2022-10-25T18:42:28.237Z,14.19
2022-10-25T18:44:56.016Z,14.19
2022-10-25T18:47:23.882Z,14.21
2022-10-25T18:49:51.702Z,14.15
2022-10-25T18:52:20.065Z,14.12
2022-10-25T18:54:48.333Z,14.05
2022-10-25T18:57:16.214Z,14.01
2022-10-25T18:59:43.946Z,13.96
2022-10-25T19:02:12.043Z,13.90
2022-10-25T19:04:39.870Z,13.85
2022-10-25T19:07:07.672Z,13.82
2022-10-25T19:09:35.622Z,13.79
2022-10-25T19:12:03.483Z,13.75
2022-10-25T19:14:31.373Z,13.73
2022-10-25T19:16:59.129Z,13.71
2022-10-25T19:19:27.117Z,13.65
2022-10-25T19:21:55.062Z,13.60
2022-10-25T19:24:23.043Z,13.56
2022-10-25T19:26:50.893Z,13.53
2022-10-25T19:29:18.635Z,13.47
2022-10-25T19:31:46.584Z,13.41
2022-10-25T19:34:14.383Z,13.38
2022-10-25T19:36:42.145Z,13.36
2022-10-25T19:39:10.577Z,13.33
2022-10-25T19:41:38.306Z,13.31
2022-10-25T19:44:06.130Z,13.27
2022-10-25T19:46:33.960Z,13.23
2022-10-25T19:49:01.857Z,13.21
2022-10-25T19:51:29.669Z,13.17
2022-10-25T19:53:57.515Z,13.14
2022-10-25T19:56:25.326Z,13.10
2022-10-25T19:58:53.123Z,13.10
2022-10-25T20:01:28.942Z,13.04
2022-10-25T20:03:57.945Z,13.01
2022-10-25T20:06:31.830Z,12.98
2022-10-25T20:09:01.476Z,12.98
2022-10-25T20:11:29.524Z,12.99
2022-10-25T20:14:00.081Z,12.98
2022-10-25T20:16:29.481Z,12.98
2022-10-25T20:19:00.245Z,12.98
2022-10-25T20:21:33.938Z,12.99
2022-10-25T20:24:05.858Z,13.04
2022-10-25T20:26:39.126Z,13.04
2022-10-25T20:29:16.984Z,13.06
2022-10-25T20:31:48.890Z,13.10
2022-10-25T20:34:17.644Z,13.12
2022-10-25T20:36:46.227Z,13.13
2022-10-25T20:39:14.301Z,13.12
2022-10-25T20:41:42.329Z,13.06
2022-10-25T20:44:10.633Z,13.06
2022-10-25T20:46:38.301Z,13.04
2022-10-25T20:49:07.514Z,13.00
2022-10-25T20:51:35.369Z,12.98
2022-10-25T20:54:09.592Z,12.96
2022-10-25T20:56:39.302Z,12.94
2022-10-25T20:59:08.068Z,12.92
2022-10-25T21:01:36.345Z,12.87
2022-10-25T21:04:04.675Z,12.84
2022-10-25T21:06:35.766Z,12.82
2022-10-25T21:09:03.524Z,12.79
2022-10-25T21:11:32.689Z,12.77
2022-10-25T21:14:00.583Z,12.76
2022-10-25T21:16:28.319Z,12.76
2022-10-25T21:18:56.173Z,12.72
2022-10-25T21:21:23.920Z,12.72
2022-10-25T21:23:55.755Z,12.74
2022-10-25T21:26:24.070Z,12.75
2022-10-25T21:28:51.854Z,12.70
2022-10-25T21:31:19.615Z,12.68
2022-10-25T21:33:50.058Z,12.69
2022-10-25T21:36:20.900Z,12.68
2022-10-25T21:38:48.879Z,12.65
2022-10-25T21:41:20.733Z,12.64
2022-10-25T21:43:50.998Z,12.58
2022-10-25T21:46:20.862Z,12.54
2022-10-25T21:48:52.693Z,12.49
2022-10-25T21:51:22.037Z,12.45
2022-10-25T21:53:49.963Z,12.41
2022-10-25T21:56:20.121Z,12.41
2022-10-25T21:58:49.833Z,12.39
2022-10-25T22:01:20.909Z,12.35
2022-10-25T22:03:49.214Z,12.30
2022-10-25T22:06:20.143Z,12.26
2022-10-25T22:08:48.160Z,12.23
2022-10-25T22:11:18.424Z,12.17
2022-10-25T22:13:47.656Z,12.11
2022-10-25T22:16:19.882Z,12.07
2022-10-25T22:18:57.756Z,12.02
2022-10-25T22:21:28.296Z,11.99
2022-10-25T22:23:56.501Z,11.97
2022-10-25T22:26:25.949Z,11.95
2022-10-25T22:28:55.839Z,11.93
2022-10-25T22:31:24.396Z,11.91
2022-10-25T22:33:54.702Z,11.90
2022-10-25T22:36:25.374Z,11.89
2022-10-25T22:38:53.312Z,11.85
2022-10-25T22:41:23.193Z,11.83
2022-10-25T22:43:51.808Z,11.81
2022-10-25T22:46:25.650Z,11.82
2022-10-25T22:48:55.406Z,11.82
2022-10-25T22:51:25.332Z,11.75
2022-10-25T22:53:53.591Z,11.77
2022-10-25T22:56:26.661Z,11.77
2022-10-25T22:58:56.833Z,11.74
2022-10-25T23:01:30.898Z,11.74
2022-10-25T23:03:59.984Z,11.73
2022-10-25T23:06:29.968Z,11.73
2022-10-25T23:08:59.982Z,11.71
2022-10-25T23:11:30.060Z,11.71
2022-10-25T23:13:58.560Z,11.70
2022-10-25T23:16:27.629Z,11.66
2022-10-25T23:18:55.845Z,11.61
2022-10-25T23:21:26.221Z,11.58
2022-10-25T23:23:56.104Z,11.56
2022-10-25T23:26:36.378Z,11.52
2022-10-25T23:29:05.089Z,11.48
2022-10-25T23:31:32.856Z,11.48
2022-10-25T23:34:01.006Z,11.50
2022-10-25T23:36:37.404Z,11.48
2022-10-25T23:39:07.585Z,11.45
2022-10-25T23:41:35.660Z,11.46
2022-10-25T23:44:03.745Z,11.44
2022-10-25T23:46:31.560Z,11.42
2022-10-25T23:48:59.322Z,11.41
2022-10-25T23:51:27.079Z,11.39
2022-10-25T23:53:54.896Z,11.39
2022-10-25T23:56:22.756Z,11.38
2022-10-25T23:58:53.813Z,11.34
